Whitebridge, Australia

9:02 PM AEDT on December 07, 2016 (GMT +1100)
| | Change Station

Elev -9999 ft 0.00 °N, 0.00 °E | Updated

Partly Cloudy
Partly Cloudy
°F
Feels Like °F
N
Wind Variable Wind from North
Gusts mph

Today
High -- | Low -- °F
--% Chance of Precip.
Yesterday
High -- | Low -- °F
Precip. -- in
Pressure 29.95 in
Visibility 6.2 miles
Clouds Few 2000 ft
Dew Point Not available.
Humidity Not available.
Rainfall --
Snow Depth Not available.
5:37 AM 7:52 PM
Waxing Crescent, 51% visible
METAR YWLM 070930Z 06008KT 9999 FEW020 21/17 Q1014 NOSIG
Pressure 29.95 in
Visibility 6.2 miles
Clouds Few 2000 ft
Dew Point Not available.
Humidity Not available.
Rainfall --
Snow Depth Not available.
5:37 AM 7:52 PM
Waxing Crescent, 51% visible
METAR YWLM 070930Z 06008KT 9999 FEW020 21/17 Q1014 NOSIG

10-Day Weather Forecast

×

Almanac

Astronomy

Dec. 07, 2016 Rise Set
Actual Time
Civil Twilight
Nautical Twilight
Astronomical Twilight
Moon
Length of Visible Light
Length of Day
Tomorrow will be .
, % of the Moon is Illuminated

Today's Extremes

Country Highs Country Lows

Community

WunderPhotos

Upload Photos

1,956,111 photos uploaded!

WunderBlog® & News

Nearby

Air Quality

  Air Quality AQ Index Pollutant
Not available.

Snow Depth

Station Depth Elevation

Earthquake Activity

City Distance Mag. Time & Date
Minimum magnitude displayed is 2.5.

Coastal Water Temperatures

Place Temperature

Stations

Nearby Weather Stations

Station Location Temp. Windchill Dew Point Humidity Wind Precip. Elev Updated Type